Time;durP1;ratioP1;P1;durP2;ratioP2;P2;SDS_P1;SDS_P2;PMS_P1;PMS_P2;Temp;Humidity;BMP_temperature;BMP_pressure;BME280_temperature;BME280_humidity;BME280_pressure;Samples;Min_cycle;Max_cycle;Signal;HPM_P1;HPM_P2
2021/09/18 00:00:09;;;;;;;3.40;1.95;;;;;;;12.78;81.94;100254.68;1696670;84;21105;-78
2021/09/18 00:02:38;;;;;;;1.43;1.33;;;;;;;12.77;81.95;100261.07;1696574;84;20999;-78
2021/09/18 00:05:04;;;;;;;2.17;1.42;;;;;;;12.75;81.95;100257.23;1696903;84;21440;-78
2021/09/18 00:07:30;;;;;;;3.08;1.35;;;;;;;12.75;81.97;100256.40;1696675;84;20999;-78
2021/09/18 00:09:56;;;;;;;2.27;1.37;;;;;;;12.77;81.97;100255.72;1696724;84;21054;-78
2021/09/18 00:12:22;;;;;;;1.85;1.40;;;;;;;12.75;81.97;100261.75;1696564;83;21861;-78
2021/09/18 00:14:48;;;;;;;3.80;1.10;;;;;;;12.71;81.96;100264.47;1696900;84;20994;-78
2021/09/18 00:17:14;;;;;;;4.20;1.80;;;;;;;12.67;82.00;100265.35;1696880;84;21186;-78
2021/09/18 00:19:40;;;;;;;2.70;1.60;;;;;;;12.65;82.01;100267.91;1696592;84;20991;-78
2021/09/18 00:22:06;;;;;;;2.83;1.40;;;;;;;12.63;82.00;100271.28;1696987;84;21066;-78
2021/09/18 00:24:32;;;;;;;4.37;1.72;;;;;;;12.59;82.02;100276.68;1696752;84;21215;-78
2021/09/18 00:26:58;;;;;;;5.28;2.67;;;;;;;12.53;82.04;100269.70;1696766;84;21280;-78
2021/09/18 00:29:24;;;;;;;5.40;2.40;;;;;;;12.49;82.05;100265.73;1696664;84;20999;-78
2021/09/18 00:31:50;;;;;;;1.90;1.42;;;;;;;12.49;82.09;100269.75;1696708;84;21047;-78
2021/09/18 00:34:16;;;;;;;2.90;1.60;;;;;;;12.48;82.10;100261.42;1696838;84;21037;-78
2021/09/18 00:36:42;;;;;;;4.70;2.33;;;;;;;12.47;82.13;100268.28;1696927;84;21195;-78
2021/09/18 00:39:08;;;;;;;2.25;1.60;;;;;;;12.44;82.14;100265.48;1696886;84;20966;-78
2021/09/18 00:41:34;;;;;;;4.03;2.05;;;;;;;12.43;82.17;100265.15;1696840;84;21479;-78
2021/09/18 00:44:00;;;;;;;7.15;2.50;;;;;;;12.40;82.19;100261.52;1696648;84;20970;-78
2021/09/18 00:46:26;;;;;;;1.80;1.70;;;;;;;12.39;82.22;100255.83;1696762;84;21518;-78
2021/09/18 00:48:52;;;;;;;2.37;2.02;;;;;;;12.37;82.26;100251.19;1696563;84;21609;-78
2021/09/18 00:51:18;;;;;;;2.80;2.40;;;;;;;12.35;82.25;100252.40;1696768;84;21492;-78
2021/09/18 00:53:45;;;;;;;4.35;2.35;;;;;;;12.33;82.28;100252.56;1696891;84;21002;-78
2021/09/18 00:56:11;;;;;;;4.55;2.15;;;;;;;12.30;82.30;100250.27;1696808;84;21037;-78
2021/09/18 00:58:37;;;;;;;3.77;2.42;;;;;;;12.27;82.33;100250.64;1696848;84;20903;-78
2021/09/18 01:01:03;;;;;;;4.15;2.10;;;;;;;12.22;82.34;100254.36;1696841;84;21147;-78
2021/09/18 01:03:29;;;;;;;2.42;1.82;;;;;;;12.19;82.38;100248.05;1696513;84;21047;-78
2021/09/18 01:05:58;;;;;;;5.12;1.98;;;;;;;12.17;82.42;100258.11;1696796;84;21094;-78
2021/09/18 01:08:27;;;;;;;2.20;1.67;;;;;;;12.13;82.47;100251.47;1696852;84;21487;-78
2021/09/18 01:10:53;;;;;;;2.80;1.77;;;;;;;12.09;82.49;100255.52;1696338;83;21090;-78
2021/09/18 01:13:20;;;;;;;2.00;1.57;;;;;;;12.04;82.52;100256.55;1696555;84;21235;-78
2021/09/18 01:15:48;;;;;;;2.98;1.80;;;;;;;12.00;82.54;100252.58;1696410;84;20987;-78
2021/09/18 01:18:14;;;;;;;1.82;1.70;;;;;;;11.95;82.56;100253.16;1696729;84;21149;-78
2021/09/18 01:20:42;;;;;;;3.30;1.45;;;;;;;11.91;82.57;100253.69;1696656;84;21015;-78
2021/09/18 01:23:08;;;;;;;4.30;1.55;;;;;;;11.88;82.62;100250.05;1696835;84;20987;-78
2021/09/18 01:25:37;;;;;;;4.33;1.70;;;;;;;11.84;82.66;100250.09;1696686;84;21855;-78
2021/09/18 01:28:04;;;;;;;3.02;1.60;;;;;;;11.81;82.67;100242.44;1696709;84;21062;-78
2021/09/18 01:30:31;;;;;;;1.90;1.75;;;;;;;11.78;82.70;100241.47;1696326;84;21013;-78
2021/09/18 01:32:58;;;;;;;3.00;1.95;;;;;;;11.74;82.75;100241.00;1696542;84;21514;-78
2021/09/18 01:35:24;;;;;;;3.17;1.77;;;;;;;11.71;82.80;100243.20;1696828;84;21125;-78
2021/09/18 01:37:50;;;;;;;2.30;1.80;;;;;;;11.70;82.82;100246.84;1696631;83;21113;-78
2021/09/18 01:40:26;;;;;;;2.47;2.00;;;;;;;11.68;82.85;100250.22;1696557;84;21602;-78
2021/09/18 01:42:52;;;;;;;6.83;1.98;;;;;;;11.67;82.91;100244.53;1695983;84;21062;-78
2021/09/18 01:45:18;;;;;;;6.95;2.30;;;;;;;11.68;82.94;100240.86;1696683;84;21051;-78
2021/09/18 01:47:50;;;;;;;4.72;2.05;;;;;;;11.68;82.98;100243.53;1696726;84;21006;-78
2021/09/18 01:50:28;;;;;;;9.58;2.87;;;;;;;11.69;83.01;100239.33;1696745;84;21219;-78
2021/09/18 01:52:58;;;;;;;4.40;1.70;;;;;;;11.70;83.04;100236.16;1696704;84;21534;-78
2021/09/18 01:55:24;;;;;;;2.08;1.90;;;;;;;11.69;83.08;100235.33;1696375;84;21510;-78
2021/09/18 01:57:52;;;;;;;2.25;1.80;;;;;;;11.70;83.12;100240.16;1696505;84;21036;-78
2021/09/18 02:00:18;;;;;;;3.62;1.80;;;;;;;11.69;83.15;100233.16;1696315;84;21006;-79
2021/09/18 02:02:44;;;;;;;2.67;1.60;;;;;;;11.69;83.18;100231.81;1696831;84;21067;-78
2021/09/18 02:05:12;;;;;;;5.45;1.60;;;;;;;11.71;83.22;100232.52;1696704;84;21003;-78
2021/09/18 02:07:38;;;;;;;2.20;1.82;;;;;;;11.70;83.25;100225.47;1696651;84;21059;-78
2021/09/18 02:10:07;;;;;;;4.62;2.00;;;;;;;11.69;83.27;100229.14;1696908;84;21689;-78
2021/09/18 02:12:33;;;;;;;2.65;1.80;;;;;;;11.66;83.30;100222.84;1696359;83;21022;-79
2021/09/18 02:14:59;;;;;;;2.95;2.25;;;;;;;11.65;83.33;100216.66;1696620;84;22221;-79
2021/09/18 02:17:25;;;;;;;6.62;2.58;;;;;;;11.65;83.34;100221.16;1696664;84;20992;-78
2021/09/18 02:19:51;;;;;;;2.87;1.77;;;;;;;11.62;83.37;100220.20;1696475;84;21897;-78
2021/09/18 02:22:17;;;;;;;3.20;1.47;;;;;;;11.61;83.39;100227.91;1696672;84;21461;-78
2021/09/18 02:24:43;;;;;;;7.03;1.92;;;;;;;11.59;83.41;100228.07;1696652;84;21034;-79
2021/09/18 02:27:09;;;;;;;6.28;1.60;;;;;;;11.60;83.43;100228.91;1696745;84;21140;-79
2021/09/18 02:29:35;;;;;;;3.25;1.75;;;;;;;11.58;83.45;100229.08;1696535;84;20888;-78
2021/09/18 02:32:01;;;;;;;2.30;1.40;;;;;;;11.56;83.46;100228.94;1696698;83;20907;-78
2021/09/18 02:34:27;;;;;;;2.00;1.35;;;;;;;11.54;83.47;100223.77;1696686;84;21441;-78
2021/09/18 02:36:53;;;;;;;2.00;1.70;;;;;;;11.53;83.51;100225.63;1696602;84;21010;-79
2021/09/18 02:39:19;;;;;;;2.77;1.72;;;;;;;11.52;83.50;100226.63;1696703;84;21135;-78
2021/09/18 02:41:45;;;;;;;2.65;1.60;;;;;;;11.49;83.52;100222.99;1696249;84;21039;-78
2021/09/18 02:44:11;;;;;;;2.87;1.85;;;;;;;11.50;83.53;100218.48;1696690;84;21103;-78
2021/09/18 02:46:37;;;;;;;3.50;2.05;;;;;;;11.51;83.53;100222.80;1696497;84;20999;-78
2021/09/18 02:49:03;;;;;;;5.10;1.85;;;;;;;11.49;83.53;100220.32;1696871;84;20923;-78
2021/09/18 02:51:29;;;;;;;4.15;1.67;;;;;;;11.49;83.54;100216.31;1696710;84;21171;-78
2021/09/18 02:53:55;;;;;;;2.50;1.42;;;;;;;11.48;83.55;100217.31;1696730;84;21003;-78
2021/09/18 02:56:21;;;;;;;3.98;1.80;;;;;;;11.44;83.55;100212.51;1696634;84;21058;-78
2021/09/18 02:58:47;;;;;;;12.43;3.17;;;;;;;11.41;83.57;100219.05;1696565;84;20888;-78
2021/09/18 03:01:13;;;;;;;2.22;1.70;;;;;;;11.40;83.58;100220.05;1696700;84;21021;-79
2021/09/18 03:03:39;;;;;;;2.05;1.60;;;;;;;11.41;83.58;100225.72;1696694;84;21136;-78
2021/09/18 03:06:05;;;;;;;2.30;1.95;;;;;;;11.43;83.57;100221.55;1696859;84;20974;-78
2021/09/18 03:08:31;;;;;;;5.75;1.92;;;;;;;11.46;83.60;100224.69;1696541;84;21078;-78
2021/09/18 03:10:57;;;;;;;3.45;1.87;;;;;;;11.51;83.62;100222.30;1696334;84;22139;-78
2021/09/18 03:13:23;;;;;;;2.50;1.90;;;;;;;11.56;83.60;100216.92;1720048;83;21066;-78
2021/09/18 03:15:49;;;;;;;4.42;1.72;;;;;;;11.58;83.62;100223.73;1725078;83;21200;-78
2021/09/18 03:18:15;;;;;;;3.37;1.90;;;;;;;11.61;83.63;100222.56;1724820;83;21519;-78
2021/09/18 03:20:41;;;;;;;2.92;1.62;;;;;;;11.64;83.64;100219.02;1724811;83;21003;-78
2021/09/18 03:23:08;;;;;;;4.45;2.30;;;;;;;11.66;83.67;100216.98;1725031;83;21007;-78
2021/09/18 03:25:35;;;;;;;1.77;1.60;;;;;;;11.68;83.66;100214.16;1724696;82;21023;-79
2021/09/18 03:28:03;;;;;;;3.00;1.60;;;;;;;11.69;83.68;100209.11;1724801;82;21053;-78
2021/09/18 03:30:29;;;;;;;3.15;1.70;;;;;;;11.72;83.71;100218.12;1724164;83;21058;-78
2021/09/18 03:32:55;;;;;;;2.65;1.77;;;;;;;11.72;83.71;100207.44;1724913;83;21063;-78
2021/09/18 03:35:21;;;;;;;6.70;1.75;;;;;;;11.74;83.74;100210.78;1725081;82;20888;-78
2021/09/18 03:37:47;;;;;;;3.83;1.72;;;;;;;11.74;83.72;100208.94;1725033;82;21055;-79
2021/09/18 03:40:13;;;;;;;1.92;1.45;;;;;;;11.76;83.72;100214.08;1725131;82;21023;-78
2021/09/18 03:42:39;;;;;;;3.15;1.35;;;;;;;11.76;83.74;100207.41;1725011;83;21023;-78
2021/09/18 03:45:07;;;;;;;2.02;1.22;;;;;;;11.74;83.73;100213.45;1725116;82;21052;-78
2021/09/18 03:47:33;;;;;;;2.47;1.52;;;;;;;11.73;83.75;100208.61;1725310;82;21481;-78
2021/09/18 03:49:59;;;;;;;5.37;1.65;;;;;;;11.74;83.73;100210.78;1725001;82;21567;-79
2021/09/18 03:52:26;;;;;;;3.75;1.40;;;;;;;11.74;83.75;100210.78;1725200;82;21962;-79
2021/09/18 03:54:55;;;;;;;2.02;1.60;;;;;;;11.75;83.75;100209.77;1725103;83;21039;-79
2021/09/18 03:57:23;;;;;;;2.42;1.80;;;;;;;11.75;83.73;100212.45;1725246;83;21067;-79
2021/09/18 03:59:49;;;;;;;1.87;1.42;;;;;;;11.76;83.73;100214.08;1724736;83;21043;-79
2021/09/18 04:02:15;;;;;;;1.67;1.42;;;;;;;11.77;83.72;100213.91;1725237;82;21074;-79
2021/09/18 04:04:41;;;;;;;1.60;1.42;;;;;;;11.78;83.71;100206.73;1725034;83;21569;-78
2021/09/18 04:07:07;;;;;;;6.15;1.90;;;;;;;11.77;83.72;100198.39;1725070;83;21078;-78
2021/09/18 04:09:33;;;;;;;5.78;1.98;;;;;;;11.78;83.70;100205.40;1725030;82;21070;-79
2021/09/18 04:11:59;;;;;;;2.85;2.20;;;;;;;11.78;83.69;100205.40;1724955;83;21000;-78
2021/09/18 04:14:25;;;;;;;2.42;1.80;;;;;;;11.78;83.69;100208.07;1724961;83;21028;-79
2021/09/18 04:16:51;;;;;;;2.05;1.40;;;;;;;11.77;83.67;100204.56;1724887;83;21128;-78
2021/09/18 04:19:17;;;;;;;2.35;1.45;;;;;;;11.77;83.67;100211.75;1724991;82;21016;-79
2021/09/18 04:21:43;;;;;;;6.40;3.10;;;;;;;11.76;83.64;100209.58;1724990;83;21051;-79
2021/09/18 04:24:09;;;;;;;2.95;1.50;;;;;;;11.76;83.63;100204.73;1725048;82;21039;-78
2021/09/18 04:26:35;;;;;;;4.08;1.50;;;;;;;11.76;83.62;100215.42;1724838;81;21066;-78
2021/09/18 04:29:01;;;;;;;2.02;1.42;;;;;;;11.74;83.59;100214.78;1724629;83;21155;-79
2021/09/18 04:31:27;;;;;;;3.22;1.70;;;;;;;11.75;83.59;100209.77;1724953;82;20979;-79
2021/09/18 04:33:53;;;;;;;4.10;1.92;;;;;;;11.74;83.57;100214.28;1725094;83;20915;-78
2021/09/18 04:36:19;;;;;;;2.83;1.98;;;;;;;11.75;83.58;100210.58;1725081;83;21354;-78
2021/09/18 04:38:45;;;;;;;3.40;1.87;;;;;;;11.76;83.56;100208.74;1725158;82;21071;-78
2021/09/18 04:41:11;;;;;;;4.10;1.82;;;;;;;11.77;83.54;100210.41;1725009;82;21162;-79
2021/09/18 04:43:37;;;;;;;2.45;1.90;;;;;;;11.77;83.53;100213.08;1725065;82;20975;-79
2021/09/18 04:46:03;;;;;;;4.97;1.87;;;;;;;11.77;83.52;100208.57;1725124;83;21074;-79
2021/09/18 04:48:29;;;;;;;3.15;1.70;;;;;;;11.79;83.50;100211.05;1725190;82;20900;-78
2021/09/18 04:50:55;;;;;;;2.08;1.75;;;;;;;11.80;83.50;100212.71;1725007;82;21111;-79
2021/09/18 04:53:22;;;;;;;4.53;1.82;;;;;;;11.80;83.49;100213.55;1698180;83;21115;-79
2021/09/18 04:55:47;;;;;;;2.92;1.87;;;;;;;11.80;83.47;100218.05;1724899;83;20991;-79
2021/09/18 04:58:13;;;;;;;2.98;1.80;;;;;;;11.80;83.44;100215.38;1725147;83;20987;-79
2021/09/18 05:00:39;;;;;;;2.20;1.70;;;;;;;11.81;83.44;100219.22;1724760;83;20995;-79
2021/09/18 05:03:06;;;;;;;1.92;1.52;;;;;;;11.83;83.41;100223.03;1725143;83;21103;-79
2021/09/18 05:05:32;;;;;;;4.53;2.10;;;;;;;11.83;83.41;100223.86;1725031;83;21827;-79
2021/09/18 05:07:58;;;;;;;4.33;1.80;;;;;;;11.84;83.39;100216.69;1724965;83;21504;-78
2021/09/18 05:10:24;;;;;;;4.50;1.60;;;;;;;11.83;83.38;100217.69;1725095;82;21716;-78
2021/09/18 05:12:51;;;;;;;3.02;1.82;;;;;;;11.85;83.38;100221.02;1716694;82;21502;-78
2021/09/18 05:15:17;;;;;;;6.12;1.92;;;;;;;11.85;83.35;100219.19;1701917;84;21579;-79
2021/09/18 05:17:44;;;;;;;4.47;2.02;;;;;;;11.87;83.34;100218.98;1701996;83;21904;-79
2021/09/18 05:20:10;;;;;;;2.30;1.50;;;;;;;11.88;83.33;100217.98;1701934;83;20948;-78
2021/09/18 05:22:36;;;;;;;4.58;2.00;;;;;;;11.90;83.31;100218.62;1701960;84;21515;-79
2021/09/18 05:25:04;;;;;;;3.75;1.87;;;;;;;11.93;83.27;100216.91;1702094;84;21026;-79
2021/09/18 05:27:30;;;;;;;4.22;2.25;;;;;;;11.95;83.27;100218.91;1701843;84;21055;-79
2021/09/18 05:29:56;;;;;;;4.67;2.10;;;;;;;11.97;83.25;100219.55;1702023;84;21109;-78
2021/09/18 05:32:22;;;;;;;4.42;1.85;;;;;;;11.97;83.23;100218.21;1702160;84;21021;-78
2021/09/18 05:34:48;;;;;;;3.27;1.90;;;;;;;11.96;83.21;100223.25;1701119;84;21481;-79
2021/09/18 05:37:14;;;;;;;2.45;1.40;;;;;;;11.94;83.21;100228.77;1701979;84;21424;-79
2021/09/18 05:39:40;;;;;;;1.67;1.57;;;;;;;11.95;83.26;100230.44;1701862;84;20994;-79
2021/09/18 05:42:08;;;;;;;1.72;1.62;;;;;;;11.96;83.26;100227.27;1702028;84;21143;-78
2021/09/18 05:44:34;;;;;;;2.60;1.67;;;;;;;11.97;83.27;100224.89;1701887;84;20994;-79
2021/09/18 05:47:00;;;;;;;2.95;2.08;;;;;;;11.94;83.28;100233.28;1701931;84;21007;-79
2021/09/18 05:49:26;;;;;;;6.58;2.27;;;;;;;11.93;83.31;100231.61;1701952;84;20994;-79
2021/09/18 05:51:52;;;;;;;4.42;2.60;;;;;;;11.90;83.34;100229.30;1701949;84;21450;-78
2021/09/18 05:54:18;;;;;;;4.75;4.30;;;;;;;11.91;83.39;100225.62;1702029;84;21109;-78
2021/09/18 05:56:44;;;;;;;6.40;4.40;;;;;;;11.91;83.42;100223.80;1701764;84;21006;-78
2021/09/18 05:59:10;;;;;;;16.15;8.20;;;;;;;11.91;83.46;100225.62;1701925;84;21108;-78
2021/09/18 06:01:37;;;;;;;6.37;4.25;;;;;;;11.88;83.52;100217.98;1701960;84;21499;-78
2021/09/18 06:04:03;;;;;;;5.22;4.08;;;;;;;11.86;83.56;100222.66;1702077;84;21037;-78
2021/09/18 06:06:29;;;;;;;7.20;5.00;;;;;;;11.84;83.60;100219.36;1701888;84;21244;-78
2021/09/18 06:08:55;;;;;;;7.10;3.75;;;;;;;11.83;83.67;100218.52;1701955;84;20990;-78
2021/09/18 06:11:22;;;;;;;8.25;3.85;;;;;;;11.81;83.70;100218.39;1701946;84;21031;-79
2021/09/18 06:13:48;;;;;;;7.40;3.60;;;;;;;11.77;83.77;100226.44;1714872;83;21571;-78
2021/09/18 06:16:15;;;;;;;6.95;3.83;;;;;;;11.74;83.83;100224.97;1724863;83;22317;-78
2021/09/18 06:18:41;;;;;;;5.55;2.87;;;;;;;11.75;83.87;100228.48;1724972;82;21789;-78
2021/09/18 06:21:08;;;;;;;5.92;3.08;;;;;;;11.71;83.93;100225.84;1724792;83;21043;-78
2021/09/18 06:23:37;;;;;;;4.50;3.40;;;;;;;11.72;84.00;100230.15;1724962;82;21032;-78
2021/09/18 06:26:02;;;;;;;4.53;3.33;;;;;;;11.74;84.04;100230.31;1724964;83;21742;-78
2021/09/18 06:28:28;;;;;;;5.33;3.65;;;;;;;11.74;84.08;100231.65;1725089;82;21051;-78
2021/09/18 06:30:54;;;;;;;3.70;3.33;;;;;;;11.72;84.12;100232.81;1724914;82;21010;-78
2021/09/18 06:33:20;;;;;;;4.05;3.58;;;;;;;11.70;84.17;100234.82;1724984;82;20989;-78
2021/09/18 06:35:47;;;;;;;4.87;3.50;;;;;;;11.71;84.23;100241.36;1724823;82;20996;-78
2021/09/18 06:38:14;;;;;;;3.27;2.98;;;;;;;11.72;84.26;100234.16;1724715;82;21070;-78
2021/09/18 06:40:40;;;;;;;3.27;2.98;;;;;;;11.73;84.31;100227.81;1725046;82;21721;-78
2021/09/18 06:43:06;;;;;;;6.15;3.42;;;;;;;11.73;84.34;100232.66;1724786;83;21836;-78
2021/09/18 06:45:32;;;;;;;8.33;4.30;;;;;;;11.73;84.41;100233.16;1724906;82;21011;-78
2021/09/18 06:47:58;;;;;;;4.70;3.65;;;;;;;11.74;84.44;100234.82;1724978;82;21003;-78
2021/09/18 06:50:24;;;;;;;4.12;3.72;;;;;;;11.76;84.49;100232.78;1725088;83;21051;-78
2021/09/18 06:52:50;;;;;;;6.00;3.42;;;;;;;11.78;84.55;100236.95;1724770;83;20999;-78
2021/09/18 06:55:16;;;;;;;4.28;3.87;;;;;;;11.83;84.60;100239.06;1725047;83;21188;-78
2021/09/18 06:57:42;;;;;;;4.58;4.10;;;;;;;11.86;84.64;100232.84;1724856;82;21071;-78
2021/09/18 07:00:10;;;;;;;7.20;4.12;;;;;;;11.91;84.67;100240.33;1724784;83;20988;-78
2021/09/18 07:02:36;;;;;;;6.00;3.60;;;;;;;11.92;84.73;100236.66;1725090;82;20999;-78
2021/09/18 07:05:02;;;;;;;5.12;3.55;;;;;;;11.91;84.76;100236.32;1725120;82;20999;-78
2021/09/18 07:07:29;;;;;;;3.90;3.45;;;;;;;11.90;84.79;100234.15;1725134;82;21144;-78
2021/09/18 07:09:56;;;;;;;5.37;3.65;;;;;;;11.92;84.83;100240.66;1724998;83;21030;-78
2021/09/18 07:12:22;;;;;;;4.53;3.20;;;;;;;11.93;84.85;100234.28;1725071;83;21077;-78
2021/09/18 07:14:48;;;;;;;5.33;3.67;;;;;;;11.94;84.89;100234.61;1705215;83;20991;-78
2021/09/18 07:17:14;;;;;;;4.45;3.45;;;;;;;11.94;84.94;100235.95;1702073;84;20895;-78
2021/09/18 07:19:40;;;;;;;4.28;3.58;;;;;;;11.94;84.96;100236.78;1702104;84;21146;-78
2021/09/18 07:22:06;;;;;;;4.47;3.85;;;;;;;11.97;85.02;100243.59;1702002;84;21051;-78
2021/09/18 07:24:34;;;;;;;3.30;3.00;;;;;;;12.00;85.04;100240.55;1702045;84;21002;-78
2021/09/18 07:27:01;;;;;;;4.28;3.55;;;;;;;11.97;85.06;100243.59;1701930;84;21053;-78
2021/09/18 07:29:27;;;;;;;4.55;3.47;;;;;;;11.96;85.08;100251.31;1672261;84;21034;-78
2021/09/18 07:31:54;;;;;;;4.60;3.47;;;;;;;11.94;85.12;100251.98;1701834;84;21045;-78
2021/09/18 07:34:21;;;;;;;7.28;5.47;;;;;;;11.90;85.17;100250.69;1702189;84;21003;-78
2021/09/18 07:36:47;;;;;;;7.45;5.35;;;;;;;11.89;85.20;100251.72;1701898;84;21043;-78
2021/09/18 07:39:13;;;;;;;8.40;5.28;;;;;;;11.90;85.24;100250.69;1702052;84;21058;-78
2021/09/18 07:41:40;;;;;;;6.92;6.10;;;;;;;11.90;85.27;100253.36;1702252;84;21516;-78
2021/09/18 07:44:07;;;;;;;8.35;6.67;;;;;;;11.92;85.30;100243.33;1702137;84;21146;-78
2021/09/18 07:46:33;;;;;;;8.05;6.08;;;;;;;11.94;85.31;100253.32;1702023;84;21053;-78
2021/09/18 07:48:59;;;;;;;8.75;5.67;;;;;;;11.95;85.36;100249.64;1702002;84;21038;-78
2021/09/18 07:51:26;;;;;;;7.62;5.72;;;;;;;12.00;85.40;100251.25;1702013;84;21089;-78
2021/09/18 07:53:52;;;;;;;12.13;7.90;;;;;;;12.05;85.43;100258.73;1702004;84;21033;-78
2021/09/18 07:56:19;;;;;;;8.40;6.12;;;;;;;12.10;85.44;100257.19;1702080;84;21163;-78
2021/09/18 07:58:45;;;;;;;8.18;5.83;;;;;;;12.14;85.46;100259.79;1701999;84;21618;-78
2021/09/18 08:01:11;;;;;;;6.62;5.28;;;;;;;12.19;85.48;100260.58;1702061;84;21039;-77
2021/09/18 08:03:37;;;;;;;5.65;5.00;;;;;;;12.21;85.49;100259.91;1702345;84;21066;-78
2021/09/18 08:06:04;;;;;;;6.72;5.37;;;;;;;12.26;85.51;100264.19;1701810;84;21081;-78
2021/09/18 08:08:30;;;;;;;6.65;4.92;;;;;;;12.29;85.54;100264.64;1701957;83;21141;-78
2021/09/18 08:10:56;;;;;;;7.17;5.83;;;;;;;12.32;85.53;100267.45;1701674;84;21014;-78
2021/09/18 08:13:22;;;;;;;8.50;5.05;;;;;;;12.35;85.54;100263.89;1702775;83;21192;-78
2021/09/18 08:15:48;;;;;;;5.42;4.25;;;;;;;12.39;85.53;100258.51;1702045;84;21063;-78
2021/09/18 08:18:14;;;;;;;6.35;4.70;;;;;;;12.43;85.56;100266.48;1701959;84;21070;-78
2021/09/18 08:20:40;;;;;;;7.30;4.53;;;;;;;12.45;85.54;100265.78;1702099;82;21097;-78
2021/09/18 08:23:06;;;;;;;7.05;4.25;;;;;;;12.52;85.56;100268.03;1701899;84;20991;-78
2021/09/18 08:25:32;;;;;;;10.28;4.65;;;;;;;12.56;85.58;100270.38;1701965;84;21338;-78
2021/09/18 08:27:58;;;;;;;7.47;4.80;;;;;;;12.56;85.58;100263.69;1702061;84;20910;-78
2021/09/18 08:30:26;;;;;;;6.42;4.37;;;;;;;12.58;85.58;100275.02;1702019;84;21038;-78
2021/09/18 08:32:52;;;;;;;6.70;4.22;;;;;;;12.59;85.57;100272.16;1702053;84;21765;-78
2021/09/18 08:35:18;;;;;;;6.03;4.55;;;;;;;12.60;85.55;100274.30;1701981;84;21026;-78
2021/09/18 08:37:44;;;;;;;5.83;4.17;;;;;;;12.62;85.57;100276.30;1701725;84;20998;-78
2021/09/18 08:40:10;;;;;;;4.10;3.70;;;;;;;12.64;85.56;100280.95;1701945;84;21042;-78
2021/09/18 08:42:40;;;;;;;5.67;4.10;;;;;;;12.65;85.55;100282.62;1702269;84;20995;-78
2021/09/18 08:45:10;;;;;;;5.87;4.22;;;;;;;12.63;85.57;100280.65;1702186;84;21022;-78
2021/09/18 08:47:35;;;;;;;9.20;4.37;;;;;;;12.63;85.54;100281.98;1701943;84;21020;-78
2021/09/18 08:50:04;;;;;;;5.00;3.85;;;;;;;12.66;85.55;100285.13;1702018;84;21050;-78
2021/09/18 08:52:30;;;;;;;5.78;4.53;;;;;;;12.70;85.56;100280.23;1701678;84;21562;-78
2021/09/18 08:54:56;;;;;;;7.78;6.15;;;;;;;12.73;85.57;100280.69;1701919;84;21485;-78
2021/09/18 08:57:22;;;;;;;8.98;5.00;;;;;;;12.77;85.56;100286.49;1701888;84;21940;-78
2021/09/18 08:59:48;;;;;;;11.83;5.12;;;;;;;12.76;85.54;100288.34;1701924;84;20943;-78
2021/09/18 09:02:20;;;;;;;8.50;5.58;;;;;;;12.76;85.53;100295.53;1701788;84;21506;-78
2021/09/18 09:04:46;;;;;;;7.45;5.15;;;;;;;12.78;85.56;100289.47;1701913;84;21285;-78
2021/09/18 09:07:14;;;;;;;21.15;10.43;;;;;;;12.80;85.56;100292.80;1702071;84;21136;-78
2021/09/18 09:09:55;;;;;;;12.53;6.40;;;;;;;12.80;85.54;100288.80;1701981;84;21839;-78
2021/09/18 09:12:32;;;;;;;6.40;5.28;;;;;;;12.80;85.54;100286.11;1702007;84;21526;-78
2021/09/18 09:15:00;;;;;;;9.40;6.22;;;;;;;12.79;85.57;100291.14;1715406;83;21003;-78
2021/09/18 09:17:29;;;;;;;14.53;11.22;;;;;;;12.80;85.56;100290.12;1724913;82;21039;-78
2021/09/18 09:19:56;;;;;;;15.03;7.72;;;;;;;12.81;85.56;100291.27;1725246;83;21082;-78
2021/09/18 09:22:44;;;;;;;11.38;6.42;;;;;;;12.83;85.55;100297.28;1724836;83;21153;-78
2021/09/18 09:25:30;;;;;;;10.40;7.15;;;;;;;12.85;85.56;100297.07;1724850;82;21068;-78
2021/09/18 09:27:58;;;;;;;8.83;6.55;;;;;;;12.89;85.56;100296.52;1721544;83;21088;-78
2021/09/18 09:30:35;;;;;;;8.00;5.40;;;;;;;12.89;85.56;100292.50;1725008;83;21071;-78
2021/09/18 09:33:08;;;;;;;9.63;5.33;;;;;;;12.92;85.57;100297.98;1725001;82;21023;-78
2021/09/18 09:35:35;;;;;;;18.57;12.37;;;;;;;12.92;85.58;100301.50;1725028;82;21806;-78
2021/09/18 09:38:01;;;;;;;11.75;7.58;;;;;;;12.92;85.57;100299.32;1724886;82;21000;-78
2021/09/18 09:40:40;;;;;;;10.18;6.53;;;;;;;12.93;85.62;100305.00;1697669;83;21083;-78
2021/09/18 09:43:09;;;;;;;12.20;6.33;;;;;;;12.92;85.62;100295.30;1725384;83;21080;-78
2021/09/18 09:45:35;;;;;;;17.42;10.15;;;;;;;12.89;85.60;100293.84;1725007;83;21736;-78
2021/09/18 09:48:18;;;;;;;16.48;8.33;;;;;;;12.90;85.62;100292.00;1724982;82;21125;-78
2021/09/18 09:50:47;;;;;;;8.83;7.20;;;;;;;12.93;85.64;100302.33;1698142;83;20988;-78
2021/09/18 09:53:29;;;;;;;9.20;6.10;;;;;;;12.97;85.67;100298.27;1694162;83;21491;-78
2021/09/18 09:55:55;;;;;;;7.45;6.42;;;;;;;12.98;85.67;100294.58;1724337;83;21535;-78
2021/09/18 09:58:21;;;;;;;9.73;6.20;;;;;;;13.01;85.70;100296.88;1724896;82;21071;-78
2021/09/18 10:00:51;;;;;;;10.25;6.78;;;;;;;13.06;85.73;100302.48;1724563;83;21094;-78
2021/09/18 10:03:25;;;;;;;10.72;6.05;;;;;;;13.12;85.74;100304.45;1724725;82;21038;-78
2021/09/18 10:05:52;;;;;;;9.30;6.55;;;;;;;13.18;85.73;100299.67;1724797;82;21019;-78
2021/09/18 10:08:23;;;;;;;9.58;6.28;;;;;;;13.23;85.75;100298.58;1724952;83;20996;-78
2021/09/18 10:10:50;;;;;;;11.33;7.55;;;;;;;13.26;85.78;100299.56;1724787;83;21007;-78
2021/09/18 10:13:18;;;;;;;10.65;7.08;;;;;;;13.33;85.79;100299.13;1725161;83;21140;-78
2021/09/18 10:15:45;;;;;;;8.95;6.25;;;;;;;13.39;85.79;100293.00;1705894;82;20998;-78
2021/09/18 10:18:11;;;;;;;8.70;5.75;;;;;;;13.38;85.79;100298.53;1701922;84;21530;-78
2021/09/18 10:23:23;;;;;;;9.20;7.12;;;;;;;13.37;85.81;100301.72;1701648;83;21059;-78
2021/09/18 10:25:57;;;;;;;11.00;7.53;;;;;;;13.40;85.84;100302.70;1702051;83;21140;-78
2021/09/18 10:28:29;;;;;;;10.32;7.60;;;;;;;13.43;85.82;100302.83;1702025;84;21018;-78
2021/09/18 10:31:00;;;;;;;11.15;8.08;;;;;;;13.43;85.83;100303.66;1699321;84;21065;-78
2021/09/18 10:33:36;;;;;;;15.98;9.38;;;;;;;13.44;85.83;100305.84;1699155;84;21037;-78
2021/09/18 10:36:22;;;;;;;30.88;13.95;;;;;;;13.43;85.83;100311.70;1702054;84;21074;-77
2021/09/18 10:39:13;;;;;;;35.60;15.28;;;;;;;13.42;85.84;100311.37;1702215;84;21061;-78
2021/09/18 10:41:49;;;;;;;29.70;13.03;;;;;;;13.42;85.88;100310.03;1701594;84;20995;-78
2021/09/18 10:44:18;;;;;;;38.30;15.90;;;;;;;13.42;85.88;100307.35;1701966;84;21243;-78
2021/09/18 10:46:55;;;;;;;38.23;16.15;;;;;;;13.46;85.89;100315.33;1702135;84;21004;-78
2021/09/18 10:49:40;;;;;;;48.65;20.23;;;;;;;13.46;85.90;100313.16;1673985;84;21490;-78
2021/09/18 10:52:25;;;;;;;20.50;10.95;;;;;;;13.52;85.90;100315.06;1702269;84;21543;-78
2021/09/18 10:55:05;;;;;;;57.08;21.40;;;;;;;13.48;85.90;100306.58;1701920;84;20979;-79
2021/09/18 10:57:48;;;;;;;19.20;10.60;;;;;;;13.49;85.94;100312.27;1701797;84;21049;-78
2021/09/18 11:00:32;;;;;;;30.43;15.63;;;;;;;13.51;85.95;100312.89;1701805;84;21023;-78
2021/09/18 11:02:59;;;;;;;25.00;13.60;;;;;;;13.51;85.95;100310.21;1702076;84;20998;-78
2021/09/18 11:05:44;;;;;;;16.73;10.58;;;;;;;13.57;85.98;100310.48;1702149;84;21791;-78
2021/09/18 11:08:21;;;;;;;10.53;8.73;;;;;;;13.60;85.99;100314.11;1701878;84;20991;-78
2021/09/18 11:10:56;;;;;;;11.12;8.28;;;;;;;13.60;85.98;100315.45;1702095;84;21062;-78
2021/09/18 11:13:35;;;;;;;12.90;8.90;;;;;;;13.60;86.00;100310.09;1702167;84;21057;-78
2021/09/18 11:16:20;;;;;;;10.85;9.23;;;;;;;13.62;86.02;100313.40;1697423;83;21034;-78
2021/09/18 11:18:53;;;;;;;10.98;8.78;;;;;;;13.66;86.04;100314.17;1675091;84;21155;-78
2021/09/18 11:21:43;;;;;;;13.20;9.93;;;;;;;13.75;86.08;100321.59;1692411;84;21002;-78
2021/09/18 11:24:24;;;;;;;12.70;8.80;;;;;;;13.79;86.07;100312.95;1696399;84;20983;-78
2021/09/18 11:26:57;;;;;;;10.90;8.73;;;;;;;13.85;86.08;100314.05;1696376;84;21086;-78
2021/09/18 11:29:36;;;;;;;10.20;7.08;;;;;;;13.90;86.08;100316.45;1695944;84;21011;-78